createdAt,value
2022-11-14T00:00:27.755Z,0
2022-11-14T00:01:36.750Z,0
2022-11-14T00:02:52.882Z,0
2022-11-14T00:03:33.285Z,0
2022-11-14T00:04:56.981Z,0
2022-11-14T00:05:38.586Z,0
2022-11-14T00:06:30.170Z,0
2022-11-14T00:07:27.732Z,0
2022-11-14T00:08:36.023Z,0
2022-11-14T00:09:25.765Z,0
2022-11-14T00:11:58.060Z,0
2022-11-14T00:12:21.910Z,0
2022-11-14T00:12:48.473Z,0
2022-11-14T00:13:36.737Z,0
2022-11-14T00:14:25.097Z,0
2022-11-14T00:15:54.769Z,0
2022-11-14T00:16:30.930Z,0
2022-11-14T00:17:32.026Z,0
2022-11-14T00:18:31.277Z,0
2022-11-14T00:19:43.097Z,0
2022-11-14T00:20:35.782Z,0
2022-11-14T00:21:28.821Z,0
2022-11-14T00:22:21.868Z,0
2022-11-14T00:23:33.146Z,0
2022-11-14T00:24:26.069Z,0
2022-11-14T00:25:28.585Z,0
2022-11-14T00:26:47.141Z,0
2022-11-14T00:27:40.873Z,0
2022-11-14T00:28:25.174Z,0
2022-11-14T00:29:30.328Z,0
2022-11-14T00:30:35.226Z,0
2022-11-14T00:31:28.730Z,0
2022-11-14T00:32:20.697Z,0
2022-11-14T00:33:50.741Z,0
2022-11-14T00:34:28.536Z,0
2022-11-14T00:35:40.378Z,0
2022-11-14T00:36:32.578Z,0
2022-11-14T00:37:21.301Z,0
2022-11-14T00:38:48.793Z,0
2022-11-14T00:39:27.946Z,0
2022-11-14T00:40:21.270Z,0
2022-11-14T00:41:52.613Z,0
2022-11-14T00:42:45.874Z,0
2022-11-14T00:43:34.474Z,0
2022-11-14T00:44:28.143Z,0
2022-11-14T00:45:35.688Z,0
2022-11-14T00:46:29.227Z,0
2022-11-14T00:47:24.018Z,0
2022-11-14T00:48:51.788Z,0
2022-11-14T00:49:46.394Z,0
2022-11-14T00:50:32.049Z,0
2022-11-14T00:51:30.472Z,0
2022-11-14T00:52:22.315Z,0
2022-11-14T00:53:32.939Z,0
2022-11-14T00:54:27.696Z,0
2022-11-14T00:55:57.404Z,0
2022-11-14T00:56:25.705Z,0
2022-11-14T00:57:43.351Z,0
2022-11-14T00:58:24.731Z,0
2022-11-14T00:59:29.305Z,0
2022-11-14T01:00:37.951Z,0
2022-11-14T01:01:33.703Z,0
2022-11-14T01:02:29.834Z,0
2022-11-14T01:03:45.351Z,0
2022-11-14T01:06:26.642Z,0
2022-11-14T01:06:34.265Z,0
2022-11-14T01:07:35.522Z,0
2022-11-14T01:08:37.597Z,0
2022-11-14T01:09:20.503Z,0
2022-11-14T01:10:22.164Z,0
2022-11-14T01:11:42.483Z,0
2022-11-14T01:12:29.050Z,0
2022-11-14T01:13:23.337Z,0
2022-11-14T01:14:28.814Z,0
2022-11-14T01:15:23.862Z,0
2022-11-14T01:17:04.959Z,0
2022-11-14T01:18:01.081Z,0
2022-11-14T01:18:44.954Z,0
2022-11-14T01:19:36.491Z,0
2022-11-14T01:20:42.998Z,0
2022-11-14T01:21:33.006Z,0
2022-11-14T01:22:26.156Z,0
2022-11-14T01:23:25.842Z,0
2022-11-14T01:24:21.545Z,0
2022-11-14T01:25:21.592Z,0
2022-11-14T01:26:33.809Z,0
2022-11-14T01:27:43.648Z,0
2022-11-14T01:28:39.970Z,0
2022-11-14T01:29:28.912Z,0
2022-11-14T01:30:27.707Z,0
2022-11-14T01:31:38.036Z,0
2022-11-14T01:32:25.409Z,0
2022-11-14T01:33:59.688Z,0
2022-11-14T01:34:28.859Z,0
2022-11-14T01:35:40.531Z,0
2022-11-14T01:36:36.623Z,0
2022-11-14T01:37:26.565Z,0
2022-11-14T01:38:39.428Z,0
2022-11-14T01:39:30.123Z,0
2022-11-14T01:40:24.431Z,0
2022-11-14T01:41:22.321Z,0
2022-11-14T01:42:38.739Z,0
2022-11-14T01:43:40.538Z,0
2022-11-14T01:44:36.461Z,0
2022-11-14T01:45:23.678Z,0
2022-11-14T01:46:34.189Z,0
2022-11-14T01:47:30.361Z,0
2022-11-14T01:48:28.914Z,0
2022-11-14T01:49:47.620Z,0
2022-11-14T01:50:42.503Z,0
2022-11-14T01:51:35.170Z,0
2022-11-14T01:52:26.361Z,0
2022-11-14T01:53:34.917Z,0
2022-11-14T01:54:34.015Z,0
2022-11-14T01:55:25.100Z,0
2022-11-14T01:56:19.826Z,0
2022-11-14T01:57:46.006Z,0
2022-11-14T01:58:23.948Z,0
2022-11-14T01:59:33.037Z,0
2022-11-14T02:00:42.195Z,0
2022-11-14T02:42:35.797Z,0
2022-11-14T02:43:24.519Z,0
2022-11-14T03:19:45.160Z,0
2022-11-14T03:22:07.275Z,0
2022-11-14T03:22:12.222Z,0
2022-11-14T03:23:27.126Z,0
2022-11-14T03:24:41.159Z,0
2022-11-14T03:25:32.078Z,0
2022-11-14T03:26:26.295Z,0
2022-11-14T03:27:54.547Z,0
2022-11-14T03:28:28.288Z,0
2022-11-14T03:29:32.876Z,0
2022-11-14T03:30:20.778Z,0
2022-11-14T03:31:27.205Z,0
2022-11-14T03:32:37.840Z,0
2022-11-14T03:33:29.225Z,0
2022-11-14T03:34:22.679Z,0
2022-11-14T03:35:47.071Z,0
2022-11-14T03:36:41.431Z,0
2022-11-14T03:37:26.437Z,0
2022-11-14T03:38:31.385Z,0
2022-11-14T03:39:23.101Z,0
2022-11-14T03:40:39.139Z,0
2022-11-14T03:41:30.201Z,0
2022-11-14T03:42:22.355Z,0
2022-11-14T03:43:40.703Z,0
2022-11-14T03:44:25.600Z,0
2022-11-14T03:45:32.343Z,0
2022-11-14T03:46:23.548Z,0
2022-11-14T03:47:36.189Z,0
2022-11-14T03:48:20.827Z,0
2022-11-14T03:49:23.801Z,0
2022-11-14T03:50:20.703Z,0
2022-11-14T03:51:31.035Z,0
2022-11-14T03:52:34.382Z,0
2022-11-14T03:53:28.991Z,0
2022-11-14T03:54:23.133Z,0
2022-11-14T03:55:25.591Z,0
2022-11-14T03:56:24.657Z,0
2022-11-14T03:57:22.828Z,0
2022-11-14T03:58:32.209Z,0
2022-11-14T03:59:42.704Z,0
2022-11-14T04:00:38.260Z,0
2022-11-14T04:01:24.713Z,0
2022-11-14T04:02:30.566Z,0
2022-11-14T04:03:35.487Z,0
2022-11-14T04:04:26.275Z,0
2022-11-14T04:05:36.742Z,0
2022-11-14T04:06:24.564Z,0
2022-11-14T04:07:26.909Z,0
2022-11-14T04:08:30.592Z,0
2022-11-14T04:09:25.730Z,0
2022-11-14T04:10:40.051Z,0
2022-11-14T04:11:29.223Z,0
2022-11-14T04:12:24.869Z,0
2022-11-14T04:13:29.721Z,0
2022-11-14T04:14:45.468Z,0
2022-11-14T04:15:40.589Z,0
2022-11-14T04:16:33.536Z,0
2022-11-14T04:17:22.948Z,0
2022-11-14T04:18:33.827Z,0
2022-11-14T04:19:27.826Z,0
2022-11-14T04:20:31.450Z,0
2022-11-14T04:21:44.513Z,0
2022-11-14T04:22:38.039Z,0
2022-11-14T04:23:29.475Z,0
2022-11-14T04:24:25.822Z,0
2022-11-14T04:25:40.722Z,0
2022-11-14T04:26:33.736Z,0
2022-11-14T04:27:25.763Z,0
2022-11-14T04:28:49.552Z,0
2022-11-14T04:29:41.659Z,0
2022-11-14T04:30:34.564Z,0
2022-11-14T04:31:27.418Z,0
2022-11-14T04:32:41.641Z,0
2022-11-14T04:33:37.911Z,0
2022-11-14T04:34:28.497Z,0
2022-11-14T04:35:23.219Z,0
2022-11-14T04:36:36.114Z,0
2022-11-14T04:37:42.591Z,0
2022-11-14T04:38:32.126Z,0
2022-11-14T04:39:24.422Z,0
2022-11-14T04:40:53.759Z,0
2022-11-14T04:41:31.024Z,0
2022-11-14T04:42:24.819Z,0
2022-11-14T04:43:51.084Z,0
2022-11-14T04:44:47.143Z,0
2022-11-14T04:45:39.385Z,0
2022-11-14T04:46:27.220Z,0
2022-11-14T04:47:25.665Z,0
2022-11-14T04:48:35.787Z,0
2022-11-14T04:49:33.317Z,0
2022-11-14T04:50:23.837Z,0
2022-11-14T04:51:49.057Z,0
2022-11-14T04:52:22.748Z,0
2022-11-14T04:53:22.209Z,0
2022-11-14T04:54:25.404Z,0
2022-11-14T04:55:44.256Z,0
2022-11-14T04:56:31.084Z,0
2022-11-14T04:57:25.820Z,0
2022-11-14T04:58:32.543Z,0
2022-11-14T04:59:39.100Z,0
2022-11-14T05:00:27.570Z,0
2022-11-14T05:01:29.503Z,0
2022-11-14T05:02:21.283Z,0
2022-11-14T05:03:24.681Z,0
2022-11-14T05:04:23.907Z,0
2022-11-14T05:05:23.596Z,0
2022-11-14T05:06:40.575Z,0
2022-11-14T05:07:31.900Z,0
2022-11-14T05:08:32.770Z,0
2022-11-14T05:09:26.813Z,0
2022-11-14T05:10:43.677Z,0
2022-11-14T05:11:28.958Z,0
2022-11-14T05:12:27.493Z,0
2022-11-14T05:13:21.116Z,0
2022-11-14T05:14:31.051Z,0
2022-11-14T05:15:32.978Z,0
2022-11-14T05:16:30.708Z,0
2022-11-14T05:17:28.404Z,0
2022-11-14T05:18:28.539Z,0
2022-11-14T05:19:35.311Z,0
2022-11-14T05:20:29.520Z,0
2022-11-14T05:21:36.889Z,0
2022-11-14T05:22:24.279Z,0
2022-11-14T05:23:35.035Z,0
2022-11-14T05:24:27.563Z,0
2022-11-14T05:25:31.534Z,0
2022-11-14T05:26:26.870Z,0
2022-11-14T05:27:29.082Z,0
2022-11-14T05:28:23.428Z,0
2022-11-14T05:29:28.015Z,0
2022-11-14T05:30:41.079Z,0
2022-11-14T05:31:33.810Z,0
2022-11-14T05:32:26.223Z,0
2022-11-14T05:33:39.996Z,0
2022-11-14T05:34:33.042Z,0
2022-11-14T05:35:28.937Z,0
2022-11-14T05:36:48.351Z,0
2022-11-14T05:37:28.179Z,0
2022-11-14T05:38:39.823Z,0
2022-11-14T05:39:31.612Z,0
2022-11-14T05:40:23.377Z,0
2022-11-14T05:41:39.654Z,0
2022-11-14T05:42:31.737Z,0
2022-11-14T05:43:22.897Z,0
2022-11-14T05:44:41.776Z,0
2022-11-14T05:45:40.142Z,0
2022-11-14T05:46:34.990Z,0
2022-11-14T05:47:25.247Z,0
2022-11-14T05:48:24.947Z,0
2022-11-14T05:49:35.850Z,0
2022-11-14T05:50:28.977Z,0
2022-11-14T05:51:26.319Z,0
2022-11-14T05:52:43.901Z,0
2022-11-14T05:53:39.539Z,0
2022-11-14T05:54:32.346Z,0
2022-11-14T05:55:25.109Z,0
2022-11-14T05:56:40.222Z,0
2022-11-14T05:57:32.803Z,0
2022-11-14T05:58:25.896Z,0
2022-11-14T05:59:51.407Z,0
2022-11-14T06:00:38.033Z,0
2022-11-14T06:01:32.035Z,0
2022-11-14T06:02:25.730Z,0
2022-11-14T06:03:47.447Z,0
2022-11-14T06:04:39.369Z,0
2022-11-14T06:05:31.295Z,0
2022-11-14T06:06:22.709Z,0
2022-11-14T06:07:47.555Z,0
2022-11-14T06:08:37.816Z,0
2022-11-14T06:09:22.524Z,-0
2022-11-14T06:10:22.001Z,-0
2022-11-14T06:11:31.839Z,0
2022-11-14T06:12:28.865Z,0
2022-11-14T06:13:25.534Z,0
2022-11-14T06:14:54.625Z,0
2022-11-14T06:15:38.631Z,0
2022-11-14T06:16:21.431Z,0
2022-11-14T06:17:26.827Z,0
2022-11-14T06:18:47.217Z,0
2022-11-14T06:19:35.162Z,0
2022-11-14T06:20:29.480Z,0
2022-11-14T06:21:22.986Z,0
2022-11-14T06:22:27.229Z,0
2022-11-14T06:23:26.757Z,0
2022-11-14T06:24:30.327Z,0
2022-11-14T06:25:29.825Z,0
2022-11-14T06:26:47.772Z,0
2022-11-14T06:27:21.784Z,0
2022-11-14T06:28:30.804Z,0
2022-11-14T06:29:24.369Z,0
2022-11-14T06:30:34.288Z,0
2022-11-14T06:31:34.301Z,0
2022-11-14T06:32:31.252Z,0
2022-11-14T06:33:21.895Z,0
2022-11-14T06:34:25.735Z,0
2022-11-14T06:35:31.424Z,0
2022-11-14T06:36:30.005Z,0
2022-11-14T06:37:35.743Z,0
2022-11-14T06:38:19.888Z,0
2022-11-14T06:39:27.586Z,0
2022-11-14T06:40:23.906Z,0
2022-11-14T06:41:31.690Z,0
2022-11-14T06:42:39.815Z,0
2022-11-14T06:43:29.116Z,0
2022-11-14T06:44:29.468Z,0
2022-11-14T06:45:24.411Z,0
2022-11-14T06:46:34.994Z,0
2022-11-14T06:47:32.224Z,0
2022-11-14T06:48:22.773Z,0
2022-11-14T06:49:40.817Z,0
2022-11-14T06:50:26.266Z,0
2022-11-14T06:51:25.961Z,0
2022-11-14T06:52:28.571Z,0
2022-11-14T06:53:45.560Z,0
2022-11-14T06:54:37.645Z,0
2022-11-14T06:55:28.808Z,0
2022-11-14T06:56:22.414Z,0
2022-11-14T06:57:36.815Z,1
2022-11-14T06:58:34.370Z,1
2022-11-14T06:59:27.693Z,1
2022-11-14T07:00:44.042Z,1
2022-11-14T07:01:22.277Z,1
2022-11-14T07:02:29.955Z,1
2022-11-14T07:03:31.165Z,1
2022-11-14T07:04:42.256Z,1
2022-11-14T07:05:35.239Z,1
2022-11-14T07:06:27.205Z,1
2022-11-14T07:07:19.730Z,1
2022-11-14T07:08:41.554Z,1
2022-11-14T07:09:34.102Z,1
2022-11-14T07:10:28.011Z,1
2022-11-14T07:12:00.710Z,1
2022-11-14T07:12:40.902Z,1
2022-11-14T07:13:33.648Z,1
2022-11-14T07:14:27.343Z,1
2022-11-14T07:15:46.680Z,1
2022-11-14T07:16:40.061Z,1
2022-11-14T07:17:31.545Z,1
2022-11-14T07:18:27.054Z,1
2022-11-14T07:19:40.961Z,1
2022-11-14T07:20:38.001Z,1
2022-11-14T07:21:27.687Z,2
2022-11-14T07:22:20.971Z,2
2022-11-14T07:23:46.782Z,2
2022-11-14T07:24:29.793Z,2
2022-11-14T07:25:19.923Z,2
2022-11-14T07:26:24.784Z,2
2022-11-14T07:27:43.227Z,2
2022-11-14T07:28:30.459Z,2
2022-11-14T07:29:19.356Z,2
2022-11-14T07:30:35.418Z,2
2022-11-14T07:31:39.283Z,2
2022-11-14T07:32:24.663Z,2
2022-11-14T07:33:24.079Z,2
2022-11-14T07:34:46.485Z,2
2022-11-14T07:35:26.440Z,2
2022-11-14T07:36:32.397Z,2
2022-11-14T07:37:26.658Z,2
2022-11-14T07:38:39.929Z,2
2022-11-14T07:39:29.225Z,3
2022-11-14T07:40:30.834Z,3
2022-11-14T07:41:25.719Z,3
2022-11-14T07:42:33.551Z,3
2022-11-14T07:43:20.806Z,3
2022-11-14T07:44:28.263Z,3
2022-11-14T07:45:20.083Z,3
2022-11-14T07:46:22.676Z,3
2022-11-14T07:47:36.807Z,3
2022-11-14T07:48:29.042Z,3
2022-11-14T07:49:41.846Z,3
2022-11-14T07:50:24.354Z,3
2022-11-14T07:51:30.950Z,3
2022-11-14T07:52:27.463Z,3
2022-11-14T07:53:31.708Z,3
2022-11-14T07:54:36.363Z,3
2022-11-14T07:55:43.154Z,3
2022-11-14T07:56:25.774Z,4
2022-11-14T07:57:27.070Z,4
2022-11-14T07:58:34.481Z,4
2022-11-14T07:59:29.984Z,4
2022-11-14T08:00:22.920Z,4
2022-11-14T08:01:27.426Z,4
2022-11-14T08:02:33.277Z,4
2022-11-14T08:03:31.403Z,4
2022-11-14T08:04:32.511Z,4
2022-11-14T08:05:52.873Z,4
2022-11-14T08:06:33.914Z,4
2022-11-14T08:07:25.159Z,5
2022-11-14T08:08:29.100Z,5
2022-11-14T08:09:28.827Z,5
2022-11-14T08:10:34.147Z,5
2022-11-14T08:11:34.869Z,5
2022-11-14T08:12:20.106Z,5
2022-11-14T08:13:41.412Z,5
2022-11-14T08:14:22.004Z,5
2022-11-14T08:15:25.079Z,5
2022-11-14T08:16:41.118Z,5
2022-11-14T08:17:36.395Z,5
2022-11-14T08:18:28.624Z,5
2022-11-14T08:19:20.033Z,5
2022-11-14T08:20:28.916Z,5
2022-11-14T08:21:35.458Z,5
2022-11-14T08:22:28.585Z,6
2022-11-14T08:23:20.521Z,6
2022-11-14T08:24:39.594Z,6
2022-11-14T08:25:31.272Z,6
2022-11-14T08:26:32.952Z,6
2022-11-14T08:27:49.033Z,6
2022-11-14T08:28:40.214Z,6
2022-11-14T08:29:37.073Z,6
2022-11-14T08:30:23.653Z,6
2022-11-14T08:31:23.348Z,6
2022-11-14T08:32:39.489Z,6
2022-11-14T08:33:33.246Z,6
2022-11-14T08:34:21.184Z,6
2022-11-14T08:35:45.704Z,6
2022-11-14T08:36:36.935Z,6
2022-11-14T08:37:24.856Z,6
2022-11-14T08:38:23.513Z,6
2022-11-14T08:39:39.289Z,6
2022-11-14T08:40:34.299Z,6
2022-11-14T08:41:27.808Z,6
2022-11-14T08:42:22.905Z,6
2022-11-14T08:43:34.708Z,7
2022-11-14T08:44:26.268Z,6
2022-11-14T08:45:30.688Z,6
2022-11-14T08:46:45.623Z,6
2022-11-14T08:47:37.225Z,6
2022-11-14T08:48:26.150Z,7
2022-11-14T08:49:23.002Z,7
2022-11-14T08:50:46.346Z,7
2022-11-14T08:51:36.459Z,7
2022-11-14T08:52:33.096Z,7
2022-11-14T08:53:29.421Z,7
2022-11-14T08:54:34.539Z,7
2022-11-14T08:55:24.865Z,7
2022-11-14T08:56:27.098Z,7
2022-11-14T08:57:50.583Z,7
2022-11-14T08:58:35.177Z,7
2022-11-14T08:59:24.819Z,7
2022-11-14T09:00:26.243Z,7
2022-11-14T09:01:47.851Z,7
2022-11-14T09:02:32.480Z,7
2022-11-14T09:03:30.488Z,7
2022-11-14T09:04:27.043Z,7
2022-11-14T09:05:28.273Z,7
2022-11-14T09:06:27.063Z,7
2022-11-14T09:07:30.858Z,7
2022-11-14T09:08:23.591Z,7
2022-11-14T09:09:30.852Z,7
2022-11-14T09:10:37.755Z,7
2022-11-14T09:11:27.310Z,7
2022-11-14T09:12:20.329Z,7
2022-11-14T09:13:25.606Z,8
2022-11-14T09:14:36.857Z,8
2022-11-14T09:15:27.731Z,8
2022-11-14T09:16:25.189Z,8
2022-11-14T09:17:23.758Z,8
2022-11-14T09:18:34.371Z,8
2022-11-14T09:19:26.199Z,8
2022-11-14T09:20:33.241Z,8
2022-11-14T09:21:41.891Z,8
2022-11-14T09:22:32.584Z,8
2022-11-14T09:23:25.855Z,8
2022-11-14T09:24:26.305Z,8
2022-11-14T09:25:35.963Z,8
2022-11-14T09:26:29.992Z,8
2022-11-14T09:27:22.021Z,8
2022-11-14T09:28:36.988Z,8
2022-11-14T09:29:36.200Z,8
2022-11-14T09:30:30.949Z,8
2022-11-14T09:31:25.119Z,8
2022-11-14T09:32:41.980Z,8
2022-11-14T09:33:27.261Z,8
2022-11-14T09:34:26.062Z,8
2022-11-14T09:35:23.920Z,8
2022-11-14T09:36:42.016Z,9
2022-11-14T09:37:37.619Z,9
2022-11-14T09:38:27.467Z,9
2022-11-14T09:39:33.108Z,9
2022-11-14T09:40:39.327Z,9
2022-11-14T09:41:31.393Z,9
2022-11-14T09:42:26.034Z,9
2022-11-14T09:43:47.501Z,9
2022-11-14T09:44:27.180Z,10
2022-11-14T09:45:38.611Z,9
2022-11-14T09:46:21.471Z,9
2022-11-14T09:47:40.938Z,9
2022-11-14T09:48:37.077Z,9
2022-11-14T09:49:31.081Z,9
2022-11-14T09:50:30.513Z,9
2022-11-14T09:51:45.143Z,9
2022-11-14T09:52:37.753Z,9
2022-11-14T09:53:24.074Z,9
2022-11-14T09:54:21.703Z,9
2022-11-14T09:55:22.898Z,8
2022-11-14T09:56:37.748Z,8
2022-11-14T09:57:22.854Z,8
2022-11-14T09:58:48.192Z,8
2022-11-14T09:59:40.206Z,8
2022-11-14T10:00:25.770Z,8
2022-11-14T10:01:24.575Z,7
2022-11-14T10:02:42.408Z,7
2022-11-14T10:03:36.456Z,8
2022-11-14T10:04:24.386Z,8
2022-11-14T10:05:22.644Z,8
2022-11-14T10:06:42.864Z,8
2022-11-14T10:07:32.968Z,8
2022-11-14T10:08:28.664Z,8
2022-11-14T10:09:27.491Z,8
2022-11-14T10:10:39.224Z,8
2022-11-14T10:11:24.741Z,8
2022-11-14T10:12:23.946Z,8
2022-11-14T10:13:36.287Z,8
2022-11-14T10:14:31.997Z,8
2022-11-14T10:15:34.476Z,8
2022-11-14T10:16:25.863Z,9
2022-11-14T10:17:47.013Z,9
2022-11-14T10:18:35.912Z,9
2022-11-14T10:19:30.858Z,9
2022-11-14T10:20:22.375Z,9
2022-11-14T10:21:36.576Z,9
2022-11-14T10:22:21.920Z,9
2022-11-14T10:23:33.632Z,9
2022-11-14T10:24:28.963Z,10
2022-11-14T10:25:29.932Z,10
2022-11-14T10:26:31.883Z,10
2022-11-14T10:27:25.261Z,10
2022-11-14T10:28:42.153Z,10
2022-11-14T10:29:24.987Z,10
2022-11-14T10:30:37.253Z,10
2022-11-14T10:31:31.727Z,10
2022-11-14T10:32:22.398Z,10
2022-11-14T10:33:21.302Z,10
2022-11-14T10:34:33.359Z,10
2022-11-14T10:35:24.598Z,10
2022-11-14T10:36:30.095Z,11
2022-11-14T10:37:41.212Z,11
2022-11-14T10:38:33.646Z,13
2022-11-14T10:39:29.898Z,12
2022-11-14T10:40:24.563Z,11
2022-11-14T10:41:56.335Z,10
2022-11-14T10:42:28.778Z,10
2022-11-14T10:43:31.818Z,10
2022-11-14T10:44:43.397Z,10
2022-11-14T10:45:37.379Z,10
2022-11-14T10:46:27.801Z,10
2022-11-14T10:47:23.546Z,10
2022-11-14T10:48:37.164Z,10
2022-11-14T10:49:31.349Z,10
2022-11-14T10:50:24.068Z,10
2022-11-14T10:51:21.405Z,13
2022-11-14T10:52:35.362Z,9
2022-11-14T10:53:36.023Z,9
2022-11-14T10:54:27.482Z,9
2022-11-14T10:56:03.715Z,9
2022-11-14T10:56:34.373Z,9
2022-11-14T10:57:26.999Z,9
2022-11-14T10:58:20.199Z,9
2022-11-14T10:59:47.053Z,9
2022-11-14T11:00:41.975Z,9
2022-11-14T11:01:37.716Z,8
2022-11-14T11:02:23.093Z,8
2022-11-14T11:03:29.139Z,8
2022-11-14T11:04:32.744Z,8
2022-11-14T11:05:27.890Z,8
2022-11-14T11:06:51.193Z,8
2022-11-14T11:07:44.053Z,8
2022-11-14T11:08:43.823Z,7
2022-11-14T11:09:25.752Z,7
2022-11-14T11:10:19.925Z,7
2022-11-14T11:11:37.937Z,7
2022-11-14T11:12:31.553Z,7
2022-11-14T11:13:21.988Z,7
2022-11-14T11:14:26.909Z,7
2022-11-14T11:15:39.972Z,7
2022-11-14T11:16:27.323Z,7
2022-11-14T11:17:35.928Z,7
2022-11-14T11:18:40.082Z,7
2022-11-14T11:19:36.746Z,7
2022-11-14T11:20:22.455Z,7
2022-11-14T11:21:43.646Z,7
2022-11-14T11:22:43.780Z,7
2022-11-14T11:23:29.615Z,7
2022-11-14T11:24:28.344Z,7
2022-11-14T11:25:24.167Z,7
2022-11-14T11:26:36.951Z,7
2022-11-14T11:27:22.866Z,8
2022-11-14T11:28:23.673Z,8
2022-11-14T11:29:50.973Z,8
2022-11-14T11:30:32.959Z,8
2022-11-14T11:31:27.535Z,8
2022-11-14T11:32:26.337Z,8
2022-11-14T11:33:40.434Z,8
2022-11-14T11:34:27.625Z,8
2022-11-14T11:35:25.584Z,8
2022-11-14T11:36:50.519Z,8
2022-11-14T11:37:37.857Z,8
2022-11-14T11:38:21.948Z,8
2022-11-14T11:39:29.624Z,8
2022-11-14T11:40:24.596Z,8
2022-11-14T11:42:11.468Z,8
2022-11-14T11:42:24.140Z,8
2022-11-14T11:43:38.401Z,8
2022-11-14T11:44:40.137Z,8
2022-11-14T11:45:25.845Z,8
2022-11-14T11:46:38.813Z,8
2022-11-14T11:47:27.179Z,8
2022-11-14T11:48:24.656Z,8
2022-11-14T11:49:35.543Z,8
2022-11-14T11:50:28.093Z,8
2022-11-14T11:51:22.487Z,8
2022-11-14T11:52:27.632Z,8
2022-11-14T11:53:22.244Z,8
2022-11-14T11:54:31.541Z,8
2022-11-14T11:55:27.896Z,8
2022-11-14T11:56:24.775Z,8
2022-11-14T11:57:35.495Z,8
2022-11-14T11:58:23.906Z,8
2022-11-14T11:59:25.312Z,8
2022-11-14T12:00:39.916Z,7
2022-11-14T12:01:38.048Z,7
2022-11-14T12:02:30.155Z,7
2022-11-14T12:03:23.413Z,7
2022-11-14T12:04:38.034Z,7
2022-11-14T12:05:34.029Z,7
2022-11-14T12:06:22.988Z,7
2022-11-14T12:07:20.455Z,7
2022-11-14T12:08:41.246Z,7
2022-11-14T12:10:08.311Z,6
2022-11-14T12:10:23.871Z,6
2022-11-14T12:11:38.766Z,6
2022-11-14T12:12:37.431Z,6
2022-11-14T12:13:31.000Z,6
2022-11-14T12:14:29.137Z,6
2022-11-14T12:15:53.359Z,6
2022-11-14T12:16:28.886Z,7
2022-11-14T12:17:32.720Z,7
2022-11-14T12:18:23.217Z,7
2022-11-14T12:19:37.854Z,7
2022-11-14T12:20:33.669Z,7
2022-11-14T12:21:26.368Z,7
2022-11-14T12:22:52.479Z,7
2022-11-14T12:23:42.548Z,7
2022-11-14T12:24:36.881Z,7
2022-11-14T12:25:23.518Z,7
2022-11-14T12:26:23.078Z,7
2022-11-14T12:27:28.267Z,6
2022-11-14T12:28:28.704Z,6
2022-11-14T12:29:53.824Z,6
2022-11-14T12:30:49.320Z,6
2022-11-14T12:31:38.847Z,6
2022-11-14T12:32:24.124Z,6
2022-11-14T12:33:25.352Z,6
2022-11-14T12:34:38.992Z,6
2022-11-14T12:35:31.942Z,6
2022-11-14T12:36:26.391Z,6
2022-11-14T12:37:55.449Z,6
2022-11-14T12:38:26.053Z,6
2022-11-14T12:39:28.911Z,6
2022-11-14T12:40:31.905Z,7
2022-11-14T12:41:25.048Z,7
2022-11-14T12:42:36.053Z,7
2022-11-14T12:43:24.421Z,7
2022-11-14T12:44:19.684Z,7
2022-11-14T12:45:45.800Z,7
2022-11-14T12:46:31.109Z,7
2022-11-14T12:47:32.684Z,7
2022-11-14T12:48:29.965Z,7
2022-11-14T12:49:39.087Z,7
2022-11-14T12:50:29.410Z,8
2022-11-14T12:51:24.710Z,8
2022-11-14T12:52:50.840Z,8
2022-11-14T12:53:34.423Z,8
2022-11-14T12:54:22.712Z,8
2022-11-14T12:55:23.015Z,9
2022-11-14T12:56:24.012Z,9
2022-11-14T12:57:27.611Z,9
2022-11-14T12:58:29.174Z,10
2022-11-14T12:59:21.017Z,10
2022-11-14T13:00:40.246Z,10
2022-11-14T13:01:23.213Z,10
2022-11-14T13:02:35.206Z,10
2022-11-14T13:03:32.081Z,11
2022-11-14T13:04:21.257Z,11
2022-11-14T13:05:35.723Z,12
2022-11-14T13:06:19.751Z,12
2022-11-14T13:07:36.623Z,12
2022-11-14T13:08:30.492Z,12
2022-11-14T13:09:39.157Z,12
2022-11-14T13:10:34.688Z,13
2022-11-14T13:11:24.005Z,14
2022-11-14T13:12:25.505Z,16
2022-11-14T13:13:29.052Z,16
2022-11-14T13:14:24.906Z,14
2022-11-14T13:15:28.678Z,12
2022-11-14T13:16:43.461Z,12
2022-11-14T13:17:34.936Z,12
2022-11-14T13:18:31.502Z,11
2022-11-14T13:19:25.097Z,10
2022-11-14T13:20:32.860Z,9
2022-11-14T13:21:27.855Z,9
2022-11-14T13:22:35.099Z,9
2022-11-14T13:23:22.651Z,8
2022-11-14T13:24:36.307Z,7
2022-11-14T13:25:34.721Z,7
2022-11-14T13:26:28.623Z,6
2022-11-14T13:28:06.563Z,6
2022-11-14T13:28:30.003Z,5
2022-11-14T13:29:26.948Z,5
2022-11-14T13:30:25.419Z,5
2022-11-14T13:31:47.964Z,5
2022-11-14T13:32:39.865Z,5
2022-11-14T13:33:31.895Z,5
2022-11-14T13:34:28.001Z,5
2022-11-14T13:35:35.492Z,5
2022-11-14T13:36:31.849Z,5
2022-11-14T13:37:21.355Z,5
2022-11-14T13:38:49.632Z,5
2022-11-14T13:39:43.747Z,6
2022-11-14T13:40:28.352Z,6
2022-11-14T13:41:24.790Z,6
2022-11-14T13:42:39.744Z,6
2022-11-14T13:43:32.724Z,6
2022-11-14T13:44:24.085Z,6
2022-11-14T13:45:54.172Z,7
2022-11-14T13:46:33.494Z,7
2022-11-14T13:47:39.686Z,7
2022-11-14T13:48:26.995Z,7
2022-11-14T13:49:27.136Z,7
2022-11-14T13:50:34.810Z,7
2022-11-14T13:52:00.948Z,7
2022-11-14T13:52:23.564Z,7
2022-11-14T13:53:53.317Z,6
2022-11-14T13:54:44.059Z,6
2022-11-14T13:55:30.975Z,6
2022-11-14T13:56:28.125Z,6
2022-11-14T13:57:29.130Z,6
2022-11-14T13:58:38.103Z,6
2022-11-14T13:59:20.585Z,6
2022-11-14T14:00:59.533Z,6
2022-11-14T14:01:46.483Z,6
2022-11-14T14:02:32.464Z,6
2022-11-14T14:03:33.972Z,5
2022-11-14T14:04:24.663Z,5
2022-11-14T14:05:37.432Z,5
2022-11-14T14:06:24.669Z,5
2022-11-14T14:07:26.329Z,5
2022-11-14T14:08:25.831Z,5
2022-11-14T14:09:38.785Z,5
2022-11-14T14:10:35.925Z,5
2022-11-14T14:11:30.876Z,5
2022-11-14T14:12:21.941Z,5
2022-11-14T14:13:27.480Z,5
2022-11-14T14:14:30.070Z,4
2022-11-14T14:15:47.113Z,4
2022-11-14T14:16:37.447Z,4
2022-11-14T14:17:22.855Z,4
2022-11-14T14:18:34.883Z,4
2022-11-14T14:19:26.163Z,4
2022-11-14T14:20:34.626Z,4
2022-11-14T14:21:34.019Z,4
2022-11-14T14:22:29.534Z,4
2022-11-14T14:23:38.855Z,4
2022-11-14T14:24:26.444Z,4
2022-11-14T14:25:30.105Z,4
2022-11-14T14:26:35.079Z,4
2022-11-14T14:27:35.329Z,4
2022-11-14T14:28:26.368Z,4
2022-11-14T14:29:30.043Z,4
2022-11-14T14:30:23.140Z,4
2022-11-14T14:31:30.451Z,4
2022-11-14T14:32:45.315Z,4
2022-11-14T14:33:36.198Z,4
2022-11-14T14:34:29.445Z,4
2022-11-14T14:35:26.863Z,4
2022-11-14T14:36:24.625Z,4
2022-11-14T14:37:26.571Z,3
2022-11-14T14:38:31.385Z,3
2022-11-14T14:39:45.527Z,3
2022-11-14T14:40:40.059Z,3
2022-11-14T14:41:32.432Z,3
2022-11-14T14:42:34.702Z,3
2022-11-14T14:43:35.882Z,3
2022-11-14T14:44:32.217Z,3
2022-11-14T14:45:23.356Z,3
2022-11-14T14:46:21.326Z,3
2022-11-14T14:47:44.148Z,3
2022-11-14T14:48:35.265Z,3
2022-11-14T14:49:49.600Z,3
2022-11-14T14:50:28.570Z,3
2022-11-14T14:51:37.770Z,3
2022-11-14T14:52:27.680Z,2
2022-11-14T14:53:55.256Z,2
2022-11-14T14:54:38.501Z,2
2022-11-14T14:55:41.772Z,2
2022-11-14T14:56:34.879Z,2
2022-11-14T14:57:25.980Z,2
2022-11-14T14:58:36.826Z,2
2022-11-14T14:59:30.258Z,2
2022-11-14T15:00:23.697Z,2
2022-11-14T15:01:53.925Z,2
2022-11-14T15:02:46.781Z,2
2022-11-14T15:04:26.459Z,2
2022-11-14T15:05:25.197Z,2
2022-11-14T15:06:32.982Z,2
2022-11-14T15:07:29.497Z,2
2022-11-14T15:09:05.614Z,2
2022-11-14T15:09:52.980Z,2
2022-11-14T15:10:27.131Z,2
2022-11-14T15:11:32.423Z,2
2022-11-14T15:12:29.100Z,2
2022-11-14T15:13:21.276Z,1
2022-11-14T15:14:30.296Z,1
2022-11-14T15:15:25.750Z,1
2022-11-14T15:16:36.047Z,1
2022-11-14T15:17:43.884Z,1
2022-11-14T15:18:34.033Z,1
2022-11-14T15:19:32.238Z,1
2022-11-14T15:20:25.424Z,1
2022-11-14T15:21:23.283Z,1
2022-11-14T15:22:22.874Z,1
2022-11-14T15:23:20.029Z,1
2022-11-14T15:24:45.950Z,1
2022-11-14T15:25:32.427Z,1
2022-11-14T15:26:35.488Z,1
2022-11-14T15:27:30.310Z,1
2022-11-14T15:28:23.433Z,1
2022-11-14T15:29:26.032Z,1
2022-11-14T15:30:24.353Z,1
2022-11-14T15:31:48.373Z,1
2022-11-14T15:32:22.479Z,1
2022-11-14T15:33:20.861Z,1
2022-11-14T15:34:36.278Z,1
2022-11-14T15:35:27.903Z,1
2022-11-14T15:36:32.841Z,1
2022-11-14T15:37:28.045Z,1
2022-11-14T15:38:42.981Z,1
2022-11-14T15:39:42.080Z,1
2022-11-14T15:40:25.563Z,1
2022-11-14T15:41:39.260Z,1
2022-11-14T15:42:31.674Z,1
2022-11-14T15:43:22.965Z,0
2022-11-14T15:44:32.753Z,0
2022-11-14T15:45:25.759Z,0
2022-11-14T15:46:40.994Z,0
2022-11-14T15:47:32.466Z,0
2022-11-14T15:48:42.526Z,0
2022-11-14T15:49:23.468Z,0
2022-11-14T15:50:31.654Z,0
2022-11-14T15:51:24.143Z,0
2022-11-14T15:52:32.373Z,0
2022-11-14T15:53:24.379Z,0
2022-11-14T15:54:30.111Z,0
2022-11-14T15:55:28.320Z,0
2022-11-14T15:56:41.677Z,0
2022-11-14T15:57:32.657Z,0
2022-11-14T15:58:28.740Z,0
2022-11-14T15:59:32.820Z,0
2022-11-14T16:00:26.513Z,0
2022-11-14T16:01:35.755Z,0
2022-11-14T16:02:19.939Z,0
2022-11-14T16:03:43.495Z,0
2022-11-14T16:04:42.959Z,0